createdAt,value
2022-08-17T00:01:31.441Z,99940.47
2022-08-17T00:04:12.298Z,99944.16
2022-08-17T00:06:39.040Z,99948.91
2022-08-17T00:09:05.712Z,99948.13
2022-08-17T00:11:37.041Z,99947.44
2022-08-17T00:14:13.419Z,99949.00
2022-08-17T00:16:55.516Z,99946.41
2022-08-17T00:19:25.483Z,99942.75
2022-08-17T00:22:30.781Z,99948.09
2022-08-17T00:24:40.609Z,99948.22
2022-08-17T00:27:08.383Z,99940.56
2022-08-17T00:29:34.991Z,99936.50
2022-08-17T00:32:02.071Z,99937.47
2022-08-17T00:34:48.586Z,99937.88
2022-08-17T00:37:15.149Z,99941.31
2022-08-17T00:39:41.750Z,99934.81
2022-08-17T00:42:16.978Z,99938.22
2022-08-17T00:44:45.382Z,99934.63
2022-08-17T00:47:11.933Z,99932.34
2022-08-17T00:49:38.454Z,99930.09
2022-08-17T00:52:15.315Z,99935.00
2022-08-17T00:54:44.662Z,99933.97
2022-08-17T00:57:20.725Z,99938.09
2022-08-17T01:00:02.032Z,99933.91
2022-08-17T01:02:34.370Z,99937.28
2022-08-17T01:05:14.731Z,99940.03
2022-08-17T01:07:42.747Z,99936.56
2022-08-17T01:10:58.522Z,99934.63
2022-08-17T01:12:59.862Z,99929.25
2022-08-17T01:15:26.462Z,99930.00
2022-08-17T01:17:53.062Z,99932.69
2022-08-17T01:20:19.634Z,99926.78
2022-08-17T01:22:46.252Z,99932.75
2022-08-17T01:25:14.112Z,99938.47
2022-08-17T01:27:41.746Z,99934.00
2022-08-17T01:30:57.740Z,99935.63
2022-08-17T01:32:58.045Z,99945.09
2022-08-17T01:35:24.619Z,99939.69
2022-08-17T01:37:51.166Z,99941.38
2022-08-17T01:40:35.088Z,99944.16
2022-08-17T01:43:11.938Z,99944.16
2022-08-17T01:45:46.421Z,99955.38
2022-08-17T01:48:13.835Z,99947.94
2022-08-17T01:50:42.935Z,99951.81
2022-08-17T01:53:15.190Z,99949.13
2022-08-17T01:55:47.470Z,99952.16
2022-08-17T01:58:14.099Z,99935.69
2022-08-17T02:00:59.789Z,99938.91
2022-08-17T02:03:28.430Z,99933.75
2022-08-17T02:05:55.298Z,99932.50
2022-08-17T02:08:37.229Z,99935.25
2022-08-17T02:11:11.796Z,99926.13
2022-08-17T02:13:38.942Z,99933.31
2022-08-17T02:16:05.557Z,99923.28
2022-08-17T02:18:32.234Z,99917.56
2022-08-17T02:20:58.982Z,99921.31
2022-08-17T02:23:28.587Z,99916.72
2022-08-17T02:25:57.547Z,99918.22
2022-08-17T02:28:24.099Z,99919.56
2022-08-17T02:31:00.912Z,99920.56
2022-08-17T02:33:41.693Z,99922.72
2022-08-17T02:36:12.644Z,99921.50
2022-08-17T02:38:40.561Z,99922.75
2022-08-17T02:41:07.367Z,99916.13
2022-08-17T02:43:34.849Z,99913.84
2022-08-17T02:46:01.886Z,99921.22
2022-08-17T02:48:31.304Z,99927.63
2022-08-17T02:50:59.610Z,99928.78
2022-08-17T02:53:26.940Z,99928.91
2022-08-17T02:55:53.503Z,99918.69
2022-08-17T02:58:34.754Z,99914.63
2022-08-17T03:01:04.219Z,99922.00
2022-08-17T03:03:30.809Z,99921.53
2022-08-17T03:05:57.835Z,99921.03
2022-08-17T03:08:25.326Z,99930.75
2022-08-17T03:10:51.944Z,99933.03
2022-08-17T03:13:18.559Z,99930.94
2022-08-17T03:15:46.262Z,99934.88
2022-08-17T03:18:18.926Z,99944.00
2022-08-17T03:20:52.844Z,99948.72
2022-08-17T03:23:23.618Z,99953.66
2022-08-17T03:25:52.833Z,99950.47
2022-08-17T03:28:20.079Z,99951.63
2022-08-17T03:30:46.625Z,99952.50
2022-08-17T03:33:13.677Z,99944.00
2022-08-17T03:35:40.956Z,99946.72
2022-08-17T03:38:10.124Z,99945.13
2022-08-17T03:40:58.809Z,99947.41
2022-08-17T03:43:23.824Z,99937.06
2022-08-17T03:46:10.905Z,99932.22
2022-08-17T03:49:12.948Z,99931.22
2022-08-17T03:51:58.277Z,99932.16
2022-08-17T03:54:43.611Z,99931.69
2022-08-17T03:57:11.234Z,99939.97
2022-08-17T03:59:38.706Z,99935.78
2022-08-17T04:02:12.768Z,99937.50
2022-08-17T04:04:39.811Z,99945.25
2022-08-17T04:07:07.395Z,99930.56
2022-08-17T04:09:34.938Z,99937.56
2022-08-17T04:12:04.630Z,99934.56
2022-08-17T04:14:39.346Z,99926.94
2022-08-17T04:17:19.947Z,99923.97
2022-08-17T04:19:46.941Z,99919.59
2022-08-17T04:22:30.930Z,99920.75
2022-08-17T04:25:06.925Z,99926.00
2022-08-17T04:27:33.609Z,99933.13
2022-08-17T04:30:00.887Z,99936.22
2022-08-17T04:33:05.087Z,99931.41
2022-08-17T04:35:18.367Z,99934.16
2022-08-17T04:37:45.353Z,99939.38
2022-08-17T04:40:30.802Z,99932.91
2022-08-17T04:43:07.307Z,99929.03
2022-08-17T04:45:34.321Z,99933.44
2022-08-17T04:48:01.230Z,99934.53
2022-08-17T04:50:27.945Z,99936.13
2022-08-17T04:52:54.621Z,99941.50
2022-08-17T04:55:21.519Z,99950.72
2022-08-17T04:57:48.096Z,99952.09
2022-08-17T05:00:14.880Z,99948.66
2022-08-17T05:02:50.211Z,99961.91
2022-08-17T05:05:24.870Z,99953.09
2022-08-17T05:07:54.336Z,99954.97
2022-08-17T05:10:25.466Z,99948.28
2022-08-17T05:13:06.678Z,99954.59
2022-08-17T05:15:37.943Z,99958.88
2022-08-17T05:18:12.157Z,99960.22
2022-08-17T05:20:40.016Z,99958.94
2022-08-17T05:23:09.377Z,99960.16
2022-08-17T05:25:42.255Z,99953.31
2022-08-17T05:28:15.549Z,99957.28
2022-08-17T05:30:44.679Z,99963.25
2022-08-17T05:33:14.033Z,99968.84
2022-08-17T05:35:43.962Z,99971.03
2022-08-17T05:38:10.884Z,99969.97
2022-08-17T05:40:38.239Z,99974.63
2022-08-17T05:43:10.350Z,99971.06
2022-08-17T05:45:55.390Z,99976.03
2022-08-17T05:48:35.629Z,99976.59
2022-08-17T05:51:44.156Z,99979.13
2022-08-17T05:54:19.547Z,99971.84
2022-08-17T05:56:57.981Z,99977.25
2022-08-17T05:59:42.726Z,99975.97
2022-08-17T06:02:29.727Z,99973.72
2022-08-17T06:05:11.023Z,99975.19
2022-08-17T06:07:43.365Z,99988.84
2022-08-17T06:10:24.282Z,99970.03
2022-08-17T06:13:05.490Z,99961.25
2022-08-17T06:15:32.127Z,99962.13
2022-08-17T06:18:07.812Z,99962.16
2022-08-17T06:20:50.037Z,99972.72
2022-08-17T06:23:35.949Z,99965.25
2022-08-17T06:26:10.862Z,99971.72
2022-08-17T06:28:43.584Z,99982.59
2022-08-17T06:31:22.257Z,99976.59
2022-08-17T06:33:49.978Z,99975.28
2022-08-17T06:36:19.408Z,99964.50
2022-08-17T06:39:16.331Z,99960.72
2022-08-17T06:42:00.683Z,99969.31
2022-08-17T06:44:43.631Z,99972.19
2022-08-17T06:47:34.977Z,99961.84
2022-08-17T06:50:27.236Z,99971.16
2022-08-17T06:53:14.093Z,99984.78
2022-08-17T06:56:04.965Z,99990.56
2022-08-17T06:58:33.255Z,100006.97
2022-08-17T07:01:09.606Z,100004.72
2022-08-17T07:03:58.121Z,100002.94
2022-08-17T07:06:29.595Z,100008.59
2022-08-17T07:09:23.302Z,100000.25
2022-08-17T07:11:52.971Z,100010.75
2022-08-17T07:14:43.116Z,100007.25
2022-08-17T07:17:15.735Z,100015.28
2022-08-17T07:19:45.701Z,100007.81
2022-08-17T07:23:01.807Z,100004.94
2022-08-17T07:25:30.338Z,100004.06
2022-08-17T07:28:00.280Z,100000.22
2022-08-17T07:30:46.782Z,99999.41
2022-08-17T07:33:19.810Z,99997.28
2022-08-17T07:35:48.341Z,99984.63
2022-08-17T07:38:27.680Z,99966.72
2022-08-17T07:40:57.511Z,99976.94
2022-08-17T07:43:36.669Z,99981.66
2022-08-17T07:46:34.127Z,99989.34
2022-08-17T07:49:03.685Z,99994.16
2022-08-17T07:51:33.950Z,99992.38
2022-08-17T07:54:14.236Z,100004.66
2022-08-17T07:56:50.902Z,100009.59
2022-08-17T07:59:24.071Z,100000.72
2022-08-17T08:01:57.945Z,100009.22
2022-08-17T08:04:59.803Z,100019.28
2022-08-17T08:07:34.549Z,100029.50
2022-08-17T08:10:15.110Z,100026.50
2022-08-17T08:12:43.267Z,100027.25
2022-08-17T08:15:25.982Z,100031.44
2022-08-17T08:18:01.130Z,100031.75
2022-08-17T08:20:55.014Z,100023.03
2022-08-17T08:23:42.334Z,100015.38
2022-08-17T08:26:30.414Z,100001.94
2022-08-17T08:29:22.591Z,99995.50
2022-08-17T08:32:05.738Z,99994.59
2022-08-17T08:34:53.394Z,100007.25
2022-08-17T08:37:51.356Z,100015.91
2022-08-17T08:40:38.969Z,100028.97
2022-08-17T08:43:22.791Z,100048.16
2022-08-17T08:45:58.547Z,100044.88
2022-08-17T08:48:58.117Z,100045.91
2022-08-17T08:51:51.799Z,100046.03
2022-08-17T08:54:37.016Z,100043.34
2022-08-17T08:57:34.085Z,100057.47
2022-08-17T09:00:37.957Z,100057.50
2022-08-17T09:04:11.809Z,100061.56
2022-08-17T09:06:51.298Z,100051.75
2022-08-17T09:09:35.808Z,100064.69
2022-08-17T09:12:21.222Z,100060.13
2022-08-17T09:15:13.798Z,100071.56
2022-08-17T09:18:08.530Z,100065.47
2022-08-17T09:20:50.533Z,100059.97
2022-08-17T09:23:32.361Z,100070.41
2022-08-17T09:26:11.857Z,100073.03
2022-08-17T09:28:44.179Z,100069.66
2022-08-17T09:31:22.310Z,100064.09
2022-08-17T09:33:49.487Z,100052.81
2022-08-17T09:36:23.066Z,100039.66
2022-08-17T09:39:11.054Z,100037.44
2022-08-17T09:41:49.136Z,100046.88
2022-08-17T09:44:31.800Z,100060.34
2022-08-17T09:47:10.964Z,100056.56
2022-08-17T09:49:49.407Z,100063.78
2022-08-17T09:52:21.717Z,100071.50
2022-08-17T09:54:51.364Z,100062.44
2022-08-17T09:57:31.494Z,100052.31
2022-08-17T10:00:25.057Z,100059.09
2022-08-17T10:03:04.390Z,100056.03
2022-08-17T10:05:46.350Z,100063.34
2022-08-17T10:08:22.807Z,100063.84
2022-08-17T10:11:19.830Z,100058.84
2022-08-17T10:14:36.500Z,100062.19
2022-08-17T10:17:50.657Z,100064.06
2022-08-17T10:20:20.778Z,100066.72
2022-08-17T10:23:13.003Z,100070.47
2022-08-17T10:26:04.735Z,100067.00
2022-08-17T10:28:47.717Z,100066.13
2022-08-17T10:31:39.759Z,100073.59
2022-08-17T10:34:21.905Z,100067.09
2022-08-17T10:36:57.915Z,100066.28
2022-08-17T10:39:52.589Z,100065.59
2022-08-17T10:42:34.296Z,100091.03
2022-08-17T10:45:18.125Z,100092.31
2022-08-17T10:48:05.743Z,100088.31
2022-08-17T10:50:54.969Z,100089.53
2022-08-17T10:53:33.644Z,100078.44
2022-08-17T10:56:12.421Z,100080.91
2022-08-17T10:58:56.270Z,100088.22
2022-08-17T11:01:43.778Z,100101.75
2022-08-17T11:04:32.473Z,100095.47
2022-08-17T11:07:13.565Z,100102.84
2022-08-17T11:09:57.553Z,100095.16
2022-08-17T11:12:40.048Z,100096.00
2022-08-17T11:15:28.380Z,100094.19
2022-08-17T11:18:10.037Z,100114.72
2022-08-17T11:21:09.767Z,100104.56
2022-08-17T11:24:01.346Z,100114.13
2022-08-17T11:26:31.995Z,100117.94
2022-08-17T11:29:18.398Z,100106.28
2022-08-17T11:31:59.075Z,100108.81
2022-08-17T11:34:28.822Z,100112.97
2022-08-17T11:37:29.502Z,100119.13
2022-08-17T11:40:15.062Z,100117.44
2022-08-17T11:43:07.854Z,100118.81
2022-08-17T11:45:53.694Z,100112.97
2022-08-17T11:48:46.064Z,100105.50
2022-08-17T11:51:47.055Z,100106.63
2022-08-17T11:54:32.348Z,100113.59
2022-08-17T11:57:21.442Z,100114.44
2022-08-17T11:59:48.000Z,100121.44
2022-08-17T12:02:34.350Z,100103.91
2022-08-17T12:05:22.898Z,100108.88
2022-08-17T12:07:57.186Z,100113.25
2022-08-17T12:10:31.740Z,100104.66
2022-08-17T12:13:02.146Z,100115.09
2022-08-17T12:15:37.208Z,100111.31
2022-08-17T12:18:04.088Z,100109.84
2022-08-17T12:20:45.216Z,100106.28
2022-08-17T12:23:50.155Z,100105.00
2022-08-17T12:26:19.861Z,100096.22
2022-08-17T12:28:57.407Z,100103.16
2022-08-17T12:31:30.479Z,100104.06
2022-08-17T12:33:57.634Z,100105.91
2022-08-17T12:36:28.378Z,100103.53
2022-08-17T12:39:14.042Z,100108.28
2022-08-17T12:41:47.279Z,100098.91
2022-08-17T12:44:21.317Z,100091.81
2022-08-17T12:47:10.604Z,100096.50
2022-08-17T12:49:39.430Z,100101.78
2022-08-17T12:52:12.503Z,100099.16
2022-08-17T12:55:02.621Z,100084.53
2022-08-17T12:57:38.353Z,100089.97
2022-08-17T13:00:16.200Z,100096.44
2022-08-17T13:02:55.163Z,100083.41
2022-08-17T13:05:29.533Z,100092.59
2022-08-17T13:07:58.822Z,100090.81
2022-08-17T13:10:33.179Z,100081.63
2022-08-17T13:13:05.175Z,100067.28
2022-08-17T13:15:44.872Z,100063.41
2022-08-17T13:18:39.033Z,100058.81
2022-08-17T13:21:18.782Z,100057.38
2022-08-17T13:24:13.713Z,100061.03
2022-08-17T13:26:44.242Z,100057.13
2022-08-17T13:29:26.031Z,100050.22
2022-08-17T13:31:56.422Z,100043.88
2022-08-17T13:34:29.252Z,100047.31
2022-08-17T13:37:28.796Z,100056.78
2022-08-17T13:39:59.328Z,100037.91
2022-08-17T13:42:33.637Z,100037.19
2022-08-17T13:45:34.848Z,100039.09
2022-08-17T13:48:14.340Z,100035.56
2022-08-17T13:50:52.095Z,100021.63
2022-08-17T13:53:40.222Z,100019.81
2022-08-17T13:56:37.760Z,100010.91
2022-08-17T13:59:01.899Z,100016.91
2022-08-17T14:01:34.761Z,100032.22
2022-08-17T14:04:05.340Z,100017.66
2022-08-17T14:06:54.124Z,100017.44
2022-08-17T14:09:24.735Z,100018.66
2022-08-17T14:11:52.690Z,100015.25
2022-08-17T14:14:20.202Z,100008.28
2022-08-17T14:16:46.737Z,100008.63
2022-08-17T14:19:14.619Z,99995.50
2022-08-17T14:21:44.067Z,99990.53
2022-08-17T14:24:26.298Z,99981.16
2022-08-17T14:26:53.445Z,99988.63
2022-08-17T14:29:21.703Z,99996.25
2022-08-17T14:31:53.307Z,99987.63
2022-08-17T14:34:22.726Z,99993.28
2022-08-17T14:36:49.387Z,99990.09
2022-08-17T14:39:17.173Z,99978.16
2022-08-17T14:41:43.943Z,99988.59
2022-08-17T14:44:12.506Z,99973.19
2022-08-17T14:46:40.852Z,99969.97
2022-08-17T14:49:08.808Z,99975.56
2022-08-17T14:51:44.110Z,99976.19
2022-08-17T14:54:32.849Z,99973.75
2022-08-17T14:57:14.805Z,99963.03
2022-08-17T14:59:46.931Z,99975.22
2022-08-17T15:02:13.715Z,99972.00
2022-08-17T15:04:45.360Z,99962.94
2022-08-17T15:07:12.315Z,99961.63
2022-08-17T15:09:39.063Z,99963.06
2022-08-17T15:12:08.942Z,99964.56
2022-08-17T15:14:35.758Z,99964.25
2022-08-17T15:17:03.424Z,99961.28
2022-08-17T15:19:29.984Z,99963.78
2022-08-17T15:21:56.566Z,99966.25
2022-08-17T15:24:23.158Z,99960.53
2022-08-17T15:26:49.859Z,99958.53
2022-08-17T15:29:16.405Z,99960.34
2022-08-17T15:31:43.404Z,99955.03
2022-08-17T15:34:09.954Z,99965.97
2022-08-17T15:36:37.015Z,99953.34
2022-08-17T15:39:05.405Z,99951.56
2022-08-17T15:41:32.398Z,99952.03
2022-08-17T15:43:59.080Z,99960.97
2022-08-17T15:46:26.583Z,99956.47
2022-08-17T15:48:58.114Z,99950.44
2022-08-17T15:51:30.241Z,99953.97
2022-08-17T15:53:58.329Z,99955.88
2022-08-17T15:56:26.038Z,99953.75
2022-08-17T15:58:54.746Z,99952.94
2022-08-17T16:02:27.728Z,99941.09
2022-08-17T16:04:29.884Z,99937.94
2022-08-17T16:06:58.086Z,99943.72
2022-08-17T16:09:24.687Z,99940.06
2022-08-17T16:11:51.962Z,99935.38
2022-08-17T16:14:21.582Z,99933.78
2022-08-17T16:16:49.660Z,99943.72
2022-08-17T16:19:16.194Z,99939.75
2022-08-17T16:21:43.356Z,99933.00
2022-08-17T16:24:13.275Z,99931.28
2022-08-17T16:26:40.433Z,99945.94
2022-08-17T16:29:07.325Z,99938.06
2022-08-17T16:31:34.344Z,99932.94
2022-08-17T16:34:17.745Z,99922.72
2022-08-17T16:36:53.694Z,99922.94
2022-08-17T16:39:27.506Z,99915.75
2022-08-17T16:41:55.810Z,99925.88
2022-08-17T16:44:22.510Z,99918.44
2022-08-17T16:46:50.226Z,99932.72
2022-08-17T16:49:35.195Z,99936.69
2022-08-17T16:52:06.785Z,99936.06
2022-08-17T16:54:33.442Z,99932.72
2022-08-17T16:57:00.185Z,99927.53
2022-08-17T16:59:30.386Z,99932.22
2022-08-17T17:02:04.720Z,99931.69
2022-08-17T17:04:34.997Z,99936.41
2022-08-17T17:07:18.177Z,99933.22
2022-08-17T17:09:47.953Z,99935.63
2022-08-17T17:12:18.753Z,99940.56
2022-08-17T17:15:02.153Z,99934.88
2022-08-17T17:17:32.861Z,99936.59
2022-08-17T17:20:19.331Z,99927.19
2022-08-17T17:22:51.974Z,99927.03
2022-08-17T17:25:28.185Z,99918.31
2022-08-17T17:28:24.939Z,99917.06
2022-08-17T17:31:05.743Z,99916.19
2022-08-17T17:33:56.868Z,99916.97
2022-08-17T17:36:33.161Z,99907.72
2022-08-17T17:39:05.275Z,99914.16
2022-08-17T17:41:50.537Z,99914.16
2022-08-17T17:44:24.239Z,99914.81
2022-08-17T17:46:54.156Z,99918.97
2022-08-17T17:49:21.165Z,99918.97
2022-08-17T17:52:14.243Z,99917.25
2022-08-17T17:55:18.236Z,99917.44
2022-08-17T17:57:55.688Z,99923.53
2022-08-17T18:00:25.535Z,99924.28
2022-08-17T18:03:32.621Z,99924.00
2022-08-17T18:06:08.052Z,99921.94
2022-08-17T18:09:00.018Z,99918.69
2022-08-17T18:11:37.037Z,99927.78
2022-08-17T18:14:14.713Z,99933.47
2022-08-17T18:16:43.374Z,99927.22
2022-08-17T18:19:15.391Z,99924.59
2022-08-17T18:21:45.807Z,99924.53
2022-08-17T18:24:13.953Z,99925.63
2022-08-17T18:26:58.663Z,99921.03
2022-08-17T18:29:28.131Z,99928.09
2022-08-17T18:32:28.441Z,99926.56
2022-08-17T18:35:18.248Z,99925.09
2022-08-17T18:37:46.613Z,99923.78
2022-08-17T18:40:16.332Z,99924.97
2022-08-17T18:42:46.260Z,99925.69
2022-08-17T18:45:29.977Z,99939.25
2022-08-17T18:47:57.436Z,99946.41
2022-08-17T18:50:25.287Z,99944.38
2022-08-17T18:52:52.018Z,99948.44
2022-08-17T18:55:24.472Z,99946.19
2022-08-17T18:57:53.486Z,99950.59
2022-08-17T19:00:38.114Z,99953.16
2022-08-17T19:03:17.888Z,99955.13
2022-08-17T19:05:56.862Z,99957.44
2022-08-17T19:08:29.470Z,99965.13
2022-08-17T19:11:01.097Z,99969.09
2022-08-17T19:13:41.543Z,99966.66
2022-08-17T19:16:20.014Z,99969.97
2022-08-17T19:18:54.300Z,99967.06
2022-08-17T19:21:47.997Z,99971.44
2022-08-17T19:24:20.323Z,99977.78
2022-08-17T19:27:00.002Z,99977.63
2022-08-17T19:29:37.158Z,99979.94
2022-08-17T19:32:06.420Z,99979.69
2022-08-17T19:34:35.593Z,99970.09
2022-08-17T19:37:23.902Z,99974.59
2022-08-17T19:40:06.678Z,99977.53
2022-08-17T19:42:51.990Z,99986.75
2022-08-17T19:45:58.216Z,99989.13
2022-08-17T19:48:45.372Z,99997.19
2022-08-17T19:51:35.812Z,100000.41
2022-08-17T19:54:20.303Z,99995.66
2022-08-17T19:57:05.790Z,99993.78
2022-08-17T19:59:50.706Z,99991.66
2022-08-17T20:02:20.239Z,99982.81
2022-08-17T20:04:49.435Z,99985.81
2022-08-17T20:07:23.535Z,99985.50
2022-08-17T20:09:58.223Z,99984.50
2022-08-17T20:12:33.778Z,99989.19
2022-08-17T20:15:12.088Z,99996.13
2022-08-17T20:17:42.291Z,99992.66
2022-08-17T20:20:37.497Z,99991.47
2022-08-17T20:23:12.354Z,99995.97
2022-08-17T20:25:47.367Z,99993.56
2022-08-17T20:28:27.820Z,99993.72
2022-08-17T20:31:02.465Z,99992.44
2022-08-17T20:33:36.095Z,99992.13
2022-08-17T20:36:16.917Z,99993.03
2022-08-17T20:38:48.206Z,99999.59
2022-08-17T20:41:16.594Z,99995.09
2022-08-17T20:43:50.746Z,99995.34
2022-08-17T20:46:30.173Z,99989.84
2022-08-17T20:49:14.000Z,99985.47
2022-08-17T20:52:00.654Z,99981.44
2022-08-17T20:54:53.670Z,99988.78
2022-08-17T20:57:40.413Z,99976.78
2022-08-17T21:00:15.503Z,99971.66
2022-08-17T21:03:23.138Z,99968.31
2022-08-17T21:06:17.104Z,99983.69
2022-08-17T21:08:57.805Z,99984.72
2022-08-17T21:12:02.640Z,99982.56
2022-08-17T21:14:32.748Z,99987.88
2022-08-17T21:17:02.396Z,99998.16
2022-08-17T21:20:12.794Z,100005.06
2022-08-17T21:22:58.473Z,100007.38
2022-08-17T21:25:49.021Z,100013.66
2022-08-17T21:28:15.518Z,100008.13
2022-08-17T21:31:09.678Z,100007.50
2022-08-17T21:33:38.860Z,100008.00
2022-08-17T21:36:11.754Z,100013.28
2022-08-17T21:38:47.570Z,100004.81
2022-08-17T21:41:27.507Z,100015.78
2022-08-17T21:44:02.726Z,100016.94
2022-08-17T21:46:36.894Z,100014.88
2022-08-17T21:49:13.424Z,100016.06
2022-08-17T21:52:07.108Z,100023.94
2022-08-17T21:54:42.463Z,100027.88
2022-08-17T21:57:16.716Z,100028.97
2022-08-17T21:59:44.472Z,100031.28
2022-08-17T22:02:20.226Z,100040.38
2022-08-17T22:05:02.075Z,100039.50
2022-08-17T22:07:36.095Z,100038.66
2022-08-17T22:10:04.931Z,100042.28
2022-08-17T22:12:31.581Z,100044.44
2022-08-17T22:15:04.049Z,100042.06
2022-08-17T22:17:35.282Z,100042.88
2022-08-17T22:20:09.462Z,100040.44
2022-08-17T22:22:59.785Z,100040.19
2022-08-17T22:25:28.235Z,100044.25
2022-08-17T22:28:03.620Z,100048.34
2022-08-17T22:30:30.299Z,100050.13
2022-08-17T22:32:57.599Z,100053.97
2022-08-17T22:35:37.754Z,100055.72
2022-08-17T22:38:19.524Z,100063.59
2022-08-17T22:40:53.535Z,100064.03
2022-08-17T22:43:25.976Z,100064.97
2022-08-17T22:45:55.721Z,100061.19
2022-08-17T22:48:27.292Z,100062.94
2022-08-17T22:51:12.882Z,100061.91
2022-08-17T22:54:07.992Z,100060.25
2022-08-17T22:56:53.970Z,100062.53
2022-08-17T22:59:45.788Z,100067.44
2022-08-17T23:02:19.091Z,100064.63
2022-08-17T23:05:11.643Z,100067.88
2022-08-17T23:07:39.251Z,100065.41
2022-08-17T23:10:09.510Z,100073.47
2022-08-17T23:12:39.646Z,100083.44
2022-08-17T23:15:16.912Z,100081.56
2022-08-17T23:17:45.293Z,100084.59
2022-08-17T23:20:15.340Z,100089.66
2022-08-17T23:22:51.431Z,100094.16
2022-08-17T23:25:25.746Z,100088.69
2022-08-17T23:27:52.531Z,100090.31
2022-08-17T23:30:19.376Z,100093.88
2022-08-17T23:32:53.845Z,100085.78
2022-08-17T23:35:40.335Z,100094.44
2022-08-17T23:38:12.602Z,100087.75
2022-08-17T23:40:40.243Z,100082.53
2022-08-17T23:43:17.591Z,100078.44
2022-08-17T23:45:54.110Z,100084.78
2022-08-17T23:48:36.314Z,100083.09
2022-08-17T23:51:13.843Z,100085.34
2022-08-17T23:53:47.519Z,100094.28
2022-08-17T23:56:14.980Z,100089.13
2022-08-17T23:58:43.166Z,100077.13
